22  °C
Temperatuur
1  °C
  Dauwpunt
25  %
Vochtigheid
Temp-Dauwp-Vochtigheid
24  km/h
Windsnelheid
100°
Pal Oost

Windsnelheid

Helder
Barometer 1007.92 (hPa)
Zicht 10.0 (km)

Waarnemingen
EHGG
Locatie Eelde 20 km
Metar :EHGG 221625Z AUTO 10013KT 070V150 9999 NCD 22/01 Q1008 NOSIG
maandag 22 april 18:25

Dichtsbijzijnde Vliegveld
https://www.checkwx.com/weather/EHGG
  Metar Aviation API Data Provided by https://www.checkwx.com/ Original CSS/SVG/PHP scripts by weather34.com © 2015-2019